createdAt,value
2023-01-23T00:00:46.471Z,21.08
2023-01-23T00:01:46.516Z,21.09
2023-01-23T00:02:46.577Z,21.09
2023-01-23T00:03:46.682Z,21.07
2023-01-23T00:04:46.659Z,21.08
2023-01-23T00:05:46.684Z,21.08
2023-01-23T00:06:46.735Z,21.08
2023-01-23T00:07:46.785Z,21.08
2023-01-23T00:08:46.837Z,21.05
2023-01-23T00:09:46.881Z,21.08
2023-01-23T00:10:46.934Z,21.08
2023-01-23T00:11:46.973Z,21.07
2023-01-23T00:12:47.011Z,21.08
2023-01-23T00:13:47.154Z,21.08
2023-01-23T00:14:47.106Z,21.07
2023-01-23T00:15:47.156Z,21.09
2023-01-23T00:16:47.196Z,21.08
2023-01-23T00:17:47.239Z,21.08
2023-01-23T00:18:47.285Z,21.08
2023-01-23T00:19:47.335Z,21.09
2023-01-23T00:20:47.370Z,21.09
2023-01-23T00:21:47.416Z,21.08
2023-01-23T00:22:47.450Z,21.08
2023-01-23T00:23:47.492Z,21.07
2023-01-23T00:24:47.542Z,21.08
2023-01-23T00:25:47.576Z,21.07
2023-01-23T00:26:47.642Z,21.07
2023-01-23T00:27:47.657Z,21.08
2023-01-23T00:28:47.707Z,21.08
2023-01-23T00:29:47.917Z,21.08
2023-01-23T00:30:47.888Z,21.08
2023-01-23T00:31:47.960Z,21.07
2023-01-23T00:32:47.885Z,21.07
2023-01-23T00:33:47.938Z,21.08
2023-01-23T00:34:48.089Z,21.08
2023-01-23T00:35:48.017Z,21.08
2023-01-23T00:36:48.060Z,21.07
2023-01-23T00:37:48.146Z,21.07
2023-01-23T00:38:48.163Z,21.07
2023-01-23T00:39:48.212Z,21.05
2023-01-23T00:40:48.271Z,21.08
2023-01-23T00:41:48.336Z,21.07
2023-01-23T00:42:48.512Z,21.08
2023-01-23T00:44:48.445Z,21.08
2023-01-23T00:45:48.595Z,21.08
2023-01-23T00:46:48.588Z,21.07
2023-01-23T00:47:48.595Z,21.08
2023-01-23T00:48:48.643Z,21.08
2023-01-23T03:05:55.515Z,21.07
2023-01-23T03:06:55.557Z,21.07
2023-01-23T03:07:55.617Z,21.07
2023-01-23T03:08:55.654Z,21.08
2023-01-23T03:09:55.783Z,21.07
2023-01-23T03:10:55.770Z,21.05
2023-01-23T03:11:55.821Z,21.07
2023-01-23T03:12:55.869Z,21.07
2023-01-23T03:13:55.918Z,21.08
2023-01-23T03:14:55.996Z,21.08
2023-01-23T03:15:56.019Z,21.07
2023-01-23T03:16:56.075Z,21.08
2023-01-23T03:17:56.136Z,21.07
2023-01-23T03:18:56.183Z,21.08
2023-01-23T03:19:56.239Z,21.08
2023-01-23T03:20:56.281Z,21.04
2023-01-23T03:23:56.458Z,21.07
2023-01-23T06:26:05.537Z,21.02
2023-01-23T06:27:05.592Z,21.04
2023-01-23T06:28:05.664Z,21.04
2023-01-23T06:29:05.728Z,21.04
2023-01-23T06:30:05.802Z,21.04
2023-01-23T06:31:05.935Z,21.04
2023-01-23T06:32:05.920Z,21.05
2023-01-23T06:33:05.991Z,21.08
2023-01-23T06:34:06.041Z,21.11
2023-01-23T06:35:06.091Z,21.14
2023-01-23T06:36:06.181Z,21.15
2023-01-23T06:37:06.194Z,21.16
2023-01-23T07:04:07.497Z,21.09
2023-01-23T07:05:07.557Z,21.09
2023-01-23T07:07:07.662Z,21.09
2023-01-23T07:08:07.713Z,21.07
2023-01-23T07:09:07.763Z,21.09
2023-01-23T07:10:07.905Z,21.08
2023-01-23T07:11:07.887Z,21.11
2023-01-23T07:12:07.933Z,21.11
2023-01-23T07:13:07.971Z,21.09
2023-01-23T07:14:08.029Z,21.11
2023-01-23T07:15:08.079Z,21.11
2023-01-23T07:17:08.182Z,21.08
2023-01-23T07:18:08.263Z,21.11
2023-01-23T07:39:09.442Z,21.15
2023-01-23T07:40:09.508Z,21.16
2023-01-23T07:41:09.537Z,21.15
2023-01-23T07:42:09.690Z,21.12
2023-01-23T07:43:09.655Z,21.12
2023-01-23T07:44:09.708Z,21.12
2023-01-23T07:45:09.751Z,21.11
2023-01-23T09:39:15.510Z,21.22
2023-01-23T09:40:15.567Z,21.16
2023-01-23T09:41:15.610Z,21.15
2023-01-23T09:42:15.656Z,21.15
2023-01-23T09:43:15.708Z,21.15
2023-01-23T09:44:15.758Z,21.14
2023-01-23T09:45:15.798Z,21.15
2023-01-23T09:46:15.872Z,21.12
2023-01-23T09:47:16.655Z,21.12
2023-01-23T09:48:15.916Z,21.14
2023-01-23T09:49:15.977Z,21.14
2023-01-23T09:50:16.102Z,21.12
2023-01-23T09:51:16.146Z,21.14
2023-01-23T09:52:16.108Z,21.12
2023-01-23T09:53:16.146Z,21.12
2023-01-23T09:57:16.332Z,21.14
2023-01-23T10:43:18.322Z,21.18
2023-01-23T10:44:18.343Z,21.21
2023-01-23T10:45:18.694Z,21.19
2023-01-23T10:46:18.467Z,21.19
2023-01-23T10:47:18.360Z,21.19
2023-01-23T10:48:18.362Z,21.19
2023-01-23T10:49:18.386Z,21.21
2023-01-23T10:50:18.401Z,21.22
2023-01-23T11:10:18.933Z,21.18
2023-01-23T11:25:19.470Z,21.39
2023-01-23T11:36:19.358Z,21.28
2023-01-23T11:37:19.414Z,21.26
2023-01-23T11:38:27.184Z,21.25
2023-01-23T11:40:19.471Z,21.28
2023-01-23T11:41:19.476Z,21.24
2023-01-23T11:42:19.569Z,21.25
2023-01-23T11:43:19.501Z,21.24
2023-01-23T11:44:21.083Z,21.22
2023-01-23T11:45:19.820Z,21.24
2023-01-23T11:46:19.583Z,21.22
2023-01-23T11:47:19.522Z,21.22
2023-01-23T11:48:19.531Z,21.22
2023-01-23T11:49:19.534Z,21.22
2023-01-23T11:50:19.567Z,21.21
2023-01-23T11:51:19.615Z,21.19
2023-01-23T11:52:19.554Z,21.19
2023-01-23T11:53:20.238Z,21.22
2023-01-23T11:54:19.585Z,21.22
2023-01-23T11:55:20.064Z,21.19
2023-01-23T11:56:20.591Z,21.22
2023-01-23T11:57:19.623Z,21.22
2023-01-23T11:58:19.693Z,21.21
2023-01-23T11:59:19.634Z,21.19
2023-01-23T12:00:20.072Z,21.24
2023-01-23T12:01:19.640Z,21.22
2023-01-23T12:02:19.689Z,21.22
2023-01-23T12:03:19.666Z,21.22
2023-01-23T12:04:19.687Z,21.21
2023-01-23T12:05:20.262Z,21.19
2023-01-23T12:06:20.595Z,21.18
2023-01-23T12:07:19.755Z,21.19
2023-01-23T12:08:19.765Z,21.24
2023-01-23T12:09:19.793Z,21.25
2023-01-23T12:10:19.868Z,21.31
2023-01-23T12:11:19.910Z,21.31
2023-01-23T12:12:19.997Z,21.33
2023-01-23T12:13:20.017Z,21.38
2023-01-23T12:14:20.127Z,21.36
2023-01-23T12:15:20.074Z,21.36
2023-01-23T12:16:20.186Z,21.39
2023-01-23T12:17:20.141Z,21.36
2023-01-23T12:18:20.161Z,21.35
2023-01-23T12:19:20.201Z,21.36
2023-01-23T12:20:20.577Z,21.35
2023-01-23T12:21:20.241Z,21.35
2023-01-23T12:22:20.270Z,21.33
2023-01-23T12:23:20.295Z,21.33
2023-01-23T12:24:20.328Z,21.31
2023-01-23T12:25:20.622Z,21.32
2023-01-23T12:26:20.413Z,21.32
2023-01-23T12:27:20.438Z,21.32
2023-01-23T12:28:20.474Z,21.31
2023-01-23T12:29:20.517Z,21.28
2023-01-23T12:30:21.017Z,21.28
2023-01-23T12:31:20.653Z,21.26
2023-01-23T12:32:20.734Z,21.28
2023-01-23T12:33:20.633Z,21.25
2023-01-23T12:34:20.687Z,21.22
2023-01-23T12:35:20.725Z,21.19
2023-01-23T12:36:20.766Z,21.24
2023-01-23T12:37:30.348Z,21.24
2023-01-23T12:38:21.805Z,21.25
2023-01-23T12:39:20.806Z,21.26
2023-01-23T12:40:21.137Z,21.24
2023-01-23T12:41:20.839Z,21.26
2023-01-23T12:42:20.843Z,21.24
2023-01-23T12:43:20.860Z,21.29
2023-01-23T12:44:20.858Z,21.25
2023-01-23T12:45:21.077Z,21.26
2023-01-23T12:46:21.016Z,21.28
2023-01-23T12:47:20.898Z,21.31
2023-01-23T12:48:20.913Z,21.29
2023-01-23T12:49:20.923Z,21.31
2023-01-23T12:50:20.928Z,21.31
2023-01-23T12:51:21.007Z,21.35
2023-01-23T12:52:20.947Z,21.33
2023-01-23T12:53:20.958Z,21.33
2023-01-23T12:54:20.966Z,21.32
2023-01-23T12:55:20.983Z,21.35
2023-01-23T12:56:20.983Z,21.36
2023-01-23T12:57:20.997Z,21.35
2023-01-23T12:58:21.018Z,21.36
2023-01-23T12:59:21.042Z,21.36
2023-01-23T13:00:21.343Z,21.38
2023-01-23T13:01:21.169Z,21.39
2023-01-23T13:02:21.295Z,21.38
2023-01-23T13:03:22.714Z,21.38
2023-01-23T13:04:21.225Z,21.36
2023-01-23T13:05:21.285Z,21.36
2023-01-23T13:06:21.303Z,21.36
2023-01-23T13:07:21.354Z,21.38
2023-01-23T13:08:21.381Z,21.36
2023-01-23T13:09:21.413Z,21.38
2023-01-23T13:16:21.606Z,21.29
2023-01-23T15:22:25.532Z,21.21
2023-01-23T15:23:25.558Z,21.21
2023-01-23T15:24:25.596Z,21.19
2023-01-23T15:25:25.628Z,21.21
2023-01-23T15:26:25.744Z,21.21
2023-01-23T15:27:25.691Z,21.18
2023-01-23T15:28:25.737Z,21.19
2023-01-23T15:29:25.761Z,21.21
2023-01-23T15:30:25.804Z,21.21
2023-01-23T15:31:26.022Z,21.19
2023-01-23T15:35:25.964Z,21.21
2023-01-23T15:39:26.101Z,21.22
2023-01-23T15:40:26.121Z,21.24
2023-01-23T15:41:34.603Z,21.25
2023-01-23T15:42:27.246Z,21.21
2023-01-23T15:43:26.164Z,21.21
2023-01-23T15:44:27.994Z,21.21
2023-01-23T15:45:26.385Z,21.21
2023-01-23T15:46:26.477Z,21.18
2023-01-23T15:47:26.453Z,21.18
2023-01-23T15:48:26.487Z,21.22
2023-01-23T15:49:26.672Z,21.19
2023-01-23T15:50:27.173Z,21.22
2023-01-23T15:51:26.581Z,21.22
2023-01-23T15:52:26.604Z,21.18
2023-01-23T15:53:26.649Z,21.19
2023-01-23T15:54:26.687Z,21.18
2023-01-23T15:55:26.736Z,21.15
2023-01-23T15:56:26.765Z,21.16
2023-01-23T15:57:26.821Z,21.15
2023-01-23T15:58:26.934Z,21.12
2023-01-23T15:59:26.892Z,21.12
2023-01-23T16:00:26.979Z,21.15
2023-01-23T16:01:27.023Z,21.12
2023-01-23T16:02:32.608Z,21.14
2023-01-23T16:04:27.013Z,21.15
2023-01-23T16:05:27.034Z,21.12
2023-01-23T16:06:27.033Z,21.12
2023-01-23T16:07:27.021Z,21.15
2023-01-23T16:08:27.021Z,21.15
2023-01-23T16:09:27.041Z,21.14
2023-01-23T16:10:27.024Z,21.15
2023-01-23T16:11:27.045Z,21.15
2023-01-23T16:12:27.050Z,21.16
2023-01-23T16:13:27.037Z,21.14
2023-01-23T16:14:27.150Z,21.16
2023-01-23T16:15:27.066Z,21.12
2023-01-23T16:16:27.178Z,21.14
2023-01-23T16:17:27.072Z,21.14
2023-01-23T16:18:27.083Z,21.14
2023-01-23T16:19:27.090Z,21.18
2023-01-23T16:20:27.109Z,21.16
2023-01-23T16:21:27.101Z,21.18
2023-01-23T16:22:27.137Z,21.18
2023-01-23T16:23:31.284Z,21.19
2023-01-23T16:25:41.935Z,21.18
2023-01-23T16:27:27.349Z,21.18
2023-01-23T16:28:27.156Z,21.19
2023-01-23T16:29:27.167Z,21.16
2023-01-23T16:30:27.273Z,21.18
2023-01-23T16:31:27.296Z,21.19
2023-01-23T16:32:27.269Z,21.19
2023-01-23T16:33:27.207Z,21.19
2023-01-23T16:34:27.263Z,21.18
2023-01-23T16:35:27.440Z,21.19
2023-01-23T16:36:27.223Z,21.19
2023-01-23T16:37:27.219Z,21.18
2023-01-23T16:38:27.218Z,21.19
2023-01-23T16:39:27.226Z,21.18
2023-01-23T16:40:27.243Z,21.18
2023-01-23T16:41:27.282Z,21.19
2023-01-23T16:42:27.231Z,21.18
2023-01-23T16:43:27.248Z,21.19
2023-01-23T16:44:27.258Z,21.21
2023-01-23T21:14:35.900Z,21.18
2023-01-23T21:18:35.504Z,21.15
2023-01-23T21:21:35.517Z,21.16
2023-01-23T21:22:35.567Z,21.16
2023-01-23T21:23:35.592Z,21.14
2023-01-23T21:24:35.652Z,21.16
2023-01-23T21:25:35.675Z,21.18
2023-01-23T21:26:35.707Z,21.19
2023-01-23T21:27:35.749Z,21.18
2023-01-23T21:28:35.824Z,21.15
2023-01-23T21:29:35.819Z,21.16
2023-01-23T21:30:35.931Z,21.16
2023-01-23T21:31:36.038Z,21.16
2023-01-23T21:32:35.948Z,21.15
2023-01-23T21:33:35.982Z,21.16
2023-01-23T21:34:36.107Z,21.16
2023-01-23T21:35:36.048Z,21.16
2023-01-23T21:36:36.099Z,21.18
2023-01-23T21:37:36.142Z,21.16
2023-01-23T21:38:36.152Z,21.16
2023-01-23T21:44:36.351Z,21.15
2023-01-23T21:45:36.390Z,21.18
2023-01-23T21:46:36.457Z,21.16
2023-01-23T21:47:36.476Z,21.16
2023-01-23T21:48:36.516Z,21.16
2023-01-23T21:49:36.555Z,21.19
2023-01-23T21:50:36.662Z,21.16
2023-01-23T21:51:36.619Z,21.14
2023-01-23T21:52:36.645Z,21.15
2023-01-23T21:53:36.689Z,21.15
2023-01-23T21:54:36.731Z,21.15
